Stations météo

réclame
Mon MeteoGroup
Uccle, Belgique (6447): Température de l'air & dewpoint: 20.05.2018 23:00:00 - 26.05.2018 23:00:00 (CEST)Uccle, Belgique (6447): Vitesse du vent & gusts: 20.05.2018 23:00:00 - 26.05.2018 23:00:00 (CEST)Uccle, Belgique (6447): Direction du vent: 20.05.2018 23:00:00 - 26.05.2018 23:00:00 (CEST)Uccle, Belgique (6447): reduced air pressure: 20.05.2018 23:00:00 - 26.05.2018 23:00:00 (CEST)Uccle, Belgique (6447): Ensoleillement: 20.05.2018 23:00:00 - 26.05.2018 23:00:00 (CEST)Uccle, Belgique (6447): Quantités de précipitations: 20.05.2018 23:00:00 - 26.05.2018 23:00:00 (CEST)
Date & Time tt [°C] td [°C] ff [km/h] ff [knt] fx [km/h] fx [knt] dd ppp [hPa] sd [min] rr [mm]
26.05.2018 23:00:00 23,7 13,5 9 5 21 11 ENE 1017,3 0 0,0
26.05.2018 22:00:00 24,8 14,3 13 7 26 14 ENE 1017,1 0 0,0
26.05.2018 21:00:00 26,0 15,0 9 5 24 13 E 1016,8 16 0,0
26.05.2018 20:00:00 27,1 14,8 11 6 22 12 E 1016,9 60 0,0
26.05.2018 19:00:00 28,0 14,6 10 5 22 12 ENE 1016,7 60 0,0
26.05.2018 18:00:00 28,2 14,1 11 6 24 13 E 1016,9 60 0,0
26.05.2018 17:00:00 28,4 13,7 8 4 22 12 E 1017,1 60 0,0
26.05.2018 16:00:00 28,2 13,9 11 6 26 14 E 1017,6 60 0,0
26.05.2018 15:00:00 27,6 14,4 9 5 29 16 E 1018,0 60 0,0
26.05.2018 14:00:00 26,9 14,4 11 6 29 16 ESE 1018,3 60 0,0
26.05.2018 13:00:00 25,9 15,1 11 6 32 17 E 1018,3 60 0,0
26.05.2018 12:00:00 25,1 15,4 12 6 26 14 ENE 1018,3 60 0,0
26.05.2018 11:00:00 24,1 15,8 8 4 15 8 E 1018,4 60 0,0
26.05.2018 10:00:00 22,1 17,0 4 2 14 7 E 1018,3 52 0,0
26.05.2018 09:00:00 19,7 16,6 7 4 17 9 ENE 1018,1 52 0,0
26.05.2018 08:00:00 17,1 16,4 5 3 7 4 E 1018,0 18 0,0
26.05.2018 07:00:00 15,9 15,0 0 0 14 7 N 1018,1 0 0,0
26.05.2018 06:00:00 16,0 15,1 6 3 14 8 E 1017,6 0 0,0
26.05.2018 05:00:00 16,7 15,7 6 3 16 9 ENE 1017,6 0 0,0
26.05.2018 04:00:00 16,8 15,6 6 4 16 9 ENE 1017,4 0 0,0
26.05.2018 03:00:00 17,2 15,8 6 3 19 10 NE 1017,8 0 0,0
26.05.2018 02:00:00 17,3 15,7 7 4 14 7 NNE 1018,0 0 0,0
26.05.2018 01:00:00 18,0 16,2 10 5 16 9 NNE 1018,0 0 0,0
26.05.2018 00:00:00 18,7 16,4 9 5 18 10 NNE 1017,8 0 0,0
25.05.2018 23:00:00 19,7 16,8 11 6 22 12 N 1017,8 0 0,0
25.05.2018 22:00:00 21,3 16,8 12 6 22 12 N 1017,4 0 0,0
25.05.2018 21:00:00 22,8 15,9 13 7 20 11 N 1016,8 18 0,0
25.05.2018 20:00:00 24,0 13,3 7 4 10 6 NNE 1016,7 21 0,0
25.05.2018 19:00:00 23,7 12,3 5 3 14 7 NNE 1016,5 0 0,0
25.05.2018 18:00:00 24,3 12,0 9 5 16 9 N 1016,8 39 0,0
25.05.2018 17:00:00 25,5 11,5 4 2 16 9 W 1016,9 56 0,0
25.05.2018 16:00:00 24,7 12,1 8 4 22 12 SSE 1017,2 43 0,0
25.05.2018 15:00:00 24,6 12,2 9 5 22 12 S 1017,1 59 0,0
25.05.2018 14:00:00 23,8 13,7 7 4 22 12 S 1017,2 57 0,0
25.05.2018 13:00:00 22,9 14,2 9 5 19 10 SW 1017,4 56 0,0
25.05.2018 12:00:00 21,9 14,7 9 5 16 9 SSW 1017,5 59 0,0
25.05.2018 11:00:00 20,4 15,5 4 2 11 6 S 1017,3 60 0,0
25.05.2018 10:00:00 18,7 15,5 4 2 13 7 W 1017,5 60 0,0
25.05.2018 09:00:00 16,4 15,8 7 4 12 6 SSW 1017,4 60 0,0
25.05.2018 08:00:00 14,4 14,0 4 2 6 4 WSW 1017,2 60 0,0
25.05.2018 07:00:00 13,1 12,6 4 2 6 3 WSW 1016,9 23 0,0
25.05.2018 06:00:00 12,7 12,2 5 3 12 6 SE 1016,9 0 0,0
25.05.2018 05:00:00 12,8 12,3 8 4 10 5 ESE 1016,6 0 0,0
25.05.2018 04:00:00 13,2 12,6 4 2 6 4 SE 1016,4 0 0,0
25.05.2018 03:00:00 13,8 12,9 5 3 8 4 ESE 1016,3 0 0,0
25.05.2018 02:00:00 14,3 13,1 7 4 8 4 ESE 1016,4 0 0,0
25.05.2018 01:00:00 15,4 13,9 5 3 19 11 ESE 1016,4 0 0,0
25.05.2018 00:00:00 16,7 15,9 10 5 19 11 WSW 1016,9 0 0,0
24.05.2018 23:00:00 16,9 15,7 4 2 7 4 E 1016,5 0 0,0
24.05.2018 22:00:00 17,2 15,4 6 3 7 4 ENE 1015,9 0 0,0
24.05.2018 21:00:00 18,5 15,7 5 3 7 4 ENE 1015,6 22 0,0
24.05.2018 20:00:00 18,3 15,8 4 2 9 5 SSW 1015,7 2 0,0
24.05.2018 19:00:00 18,2 15,9 5 3 27 14 E 1015,5 0 0,2
24.05.2018 18:00:00 18,8 14,9 10 6 31 17 SSE 1015,9 0 0,2
24.05.2018 17:00:00 22,4 13,1 6 4 25 13 E 1015,2 17 0,0
24.05.2018 16:00:00 24,1 13,9 12 7 22 12 ENE 1015,6 39 0,0
24.05.2018 15:00:00 23,1 12,9 9 5 23 13 E 1016,1 19 0,0
24.05.2018 14:00:00 22,8 12,2 11 6 21 12 ENE 1016,7 60 0,0
24.05.2018 13:00:00 21,5 12,7 9 5 19 10 ESE 1017,2 36 0,0
24.05.2018 12:00:00 20,6 13,5 11 6 19 10 E 1017,6 23 0,0
24.05.2018 11:00:00 19,8 13,3 8 5 22 12 ENE 1017,7 21 0,0
24.05.2018 10:00:00 18,4 13,0 7 4 22 12 E 1018,1 20 0,0
24.05.2018 09:00:00 16,0 12,5 9 5 22 12 E 1018,1 0 0,0
24.05.2018 08:00:00 15,5 12,6 11 6 23 12 ENE 1018,4 35 0,0
24.05.2018 07:00:00 14,2 11,8 13 7 22 12 NE 1018,3 4 0,0
24.05.2018 06:00:00 14,2 13,5 10 5 16 9 NE 1018,3 0 0,0
24.05.2018 05:00:00 13,9 13,2 8 4 11 6 NNE 1018,7 0 0,0
24.05.2018 04:00:00 14,6 13,9 9 5 11 6 N 1018,9 0 0,0
24.05.2018 03:00:00 14,6 13,7 7 4 9 5 N 1019,3 0 0,0
24.05.2018 02:00:00 15,1 14,1 4 2 8 4 NW 1019,4 0 0,0
24.05.2018 01:00:00 15,7 14,2 5 3 23 13 SSW 1019,7 0 0,0
24.05.2018 00:00:00 16,9 15,4 16 9 42 23 S 1020,0 0 0,0
23.05.2018 23:00:00 17,3 16,3 6 3 14 7 SSW 1019,1 0 0,0
23.05.2018 22:00:00 17,5 16,4 10 5 13 7 NE 1018,8 0 0,0
23.05.2018 21:00:00 18,0 16,6 7 4 14 8 NNE 1018,7 - -
23.05.2018 20:00:00 18,3 16,6 7 4 21 12 N 1018,5 0 4,6
23.05.2018 19:00:00 22,0 15,0 8 4 21 11 E 1017,9 0 0,0
23.05.2018 18:00:00 22,9 14,0 13 7 26 14 E 1017,8 47 0,0
23.05.2018 17:00:00 22,7 13,4 14 8 31 17 ENE 1017,9 37 0,0
23.05.2018 16:00:00 22,1 13,4 14 7 26 14 NE 1018,1 25 0,0
23.05.2018 15:00:00 21,0 15,5 9 5 15 8 NE 1018,7 12 0,0
23.05.2018 14:00:00 19,9 15,4 7 4 18 10 NE 1019,0 9 0,0
23.05.2018 13:00:00 19,0 15,6 9 5 20 11 NE 1019,2 15 0,0
23.05.2018 12:00:00 17,3 15,2 8 5 22 12 NE 1019,2 9 0,0
23.05.2018 11:00:00 16,4 15,5 9 5 17 9 NNE 1018,8 4 0,2
23.05.2018 10:00:00 15,1 14,4 10 6 22 12 N 1018,8 0 0,2
23.05.2018 09:00:00 15,2 14,5 8 5 16 9 NNE 1018,4 0 0,0
23.05.2018 08:00:00 14,8 14,1 11 6 16 9 NNE 1018,0 0 1,1
23.05.2018 07:00:00 14,6 13,8 4 2 6 3 E 1017,3 0 0,8
23.05.2018 06:00:00 14,3 13,2 0 0 8 5 N 1016,9 0 0,9
23.05.2018 05:00:00 14,1 13,2 5 3 10 6 ENE 1016,5 0 0,0
23.05.2018 04:00:00 13,7 12,7 4 2 7 4 NE 1016,2 0 0,0
23.05.2018 03:00:00 14,0 12,8 4 2 6 3 WNW 1016,0 0 0,0
23.05.2018 02:00:00 14,8 13,3 0 0 9 5 N 1015,9 0 0,0
23.05.2018 01:00:00 14,6 12,2 4 2 10 6 N 1015,8 0 0,0
23.05.2018 00:00:00 15,5 12,8 8 4 12 7 NNE 1015,7 0 0,0
22.05.2018 23:00:00 15,5 12,8 8 4 13 7 NNE 1015,6 0 0,0
22.05.2018 22:00:00 16,0 13,1 5 3 12 6 NNE 1014,7 0 0,0
22.05.2018 21:00:00 16,5 12,9 8 5 13 7 N 1014,1 0 0,3
22.05.2018 20:00:00 17,4 11,0 7 4 20 11 NW 1014,0 0 0,0
22.05.2018 19:00:00 17,9 10,5 12 7 35 19 E 1013,7 0 0,0
22.05.2018 18:00:00 19,9 10,5 19 11 39 21 ENE 1013,0 19 0,0
22.05.2018 17:00:00 23,6 11,6 10 5 16 8 NNE 1011,7 15 0,0
22.05.2018 16:00:00 23,0 12,5 7 4 17 9 W 1011,8 0 0,0
22.05.2018 15:00:00 22,6 12,6 8 5 17 9 SW 1012,0 0 0,0
22.05.2018 14:00:00 22,4 12,6 7 4 15 8 SW 1012,1 12 0,0
22.05.2018 13:00:00 21,9 13,1 4 2 11 6 NNW 1012,1 52 0,0
22.05.2018 12:00:00 21,2 13,3 5 3 11 6 NW 1012,2 60 0,0
22.05.2018 11:00:00 20,0 13,7 5 3 14 7 NNW 1012,2 60 0,0
22.05.2018 10:00:00 18,2 13,7 7 4 13 7 WNW 1012,3 60 0,0
22.05.2018 09:00:00 16,3 14,2 5 3 8 4 W 1011,9 60 0,0
22.05.2018 08:00:00 13,6 12,7 4 2 10 5 E 1011,8 24 0,0
22.05.2018 07:00:00 13,2 12,4 8 5 11 6 WNW 1011,6 26 0,0
22.05.2018 06:00:00 12,8 11,8 5 3 7 4 W 1011,0 0 0,0
22.05.2018 05:00:00 13,2 12,1 6 4 11 6 ESE 1011,0 0 0,0
22.05.2018 04:00:00 13,7 12,4 7 4 12 7 ENE 1011,2 0 0,0
22.05.2018 03:00:00 14,1 12,3 6 3 9 5 NE 1011,1 0 0,0
22.05.2018 02:00:00 14,9 12,3 7 4 13 7 W 1011,2 0 0,0
22.05.2018 01:00:00 15,8 12,9 8 4 18 10 E 1011,1 0 0,0
22.05.2018 00:00:00 16,8 13,7 9 5 15 8 ENE 1011,4 0 0,0
21.05.2018 23:00:00 17,5 13,9 4 2 15 8 SE 1011,6 0 0,0
21.05.2018 22:00:00 18,7 13,1 5 3 17 9 ENE 1011,4 0 0,0
21.05.2018 21:00:00 20,5 11,9 11 6 19 10 NNE 1011,3 0 0,0
21.05.2018 20:00:00 22,5 10,7 4 2 9 5 WSW 1010,7 7 0,0
21.05.2018 19:00:00 22,6 10,6 5 3 11 6 SSW 1010,9 3 0,0
21.05.2018 18:00:00 22,6 10,0 8 5 18 10 SSE 1011,1 12 0,0
21.05.2018 17:00:00 23,7 9,8 13 7 26 14 ESE 1011,5 57 0,0
21.05.2018 16:00:00 22,3 11,3 9 5 29 15 E 1012,3 29 0,0
21.05.2018 15:00:00 22,3 10,4 13 7 29 16 ESE 1012,9 60 0,0
21.05.2018 14:00:00 21,4 10,3 11 6 29 16 NE 1013,1 54 0,0
21.05.2018 13:00:00 20,2 10,5 13 7 23 12 ENE 1013,7 49 0,0
21.05.2018 12:00:00 19,6 11,2 11 6 26 14 E 1014,2 49 0,0
21.05.2018 11:00:00 17,0 12,0 11 6 26 14 E 1014,6 5 0,0
21.05.2018 10:00:00 15,8 12,2 12 7 31 17 E 1015,0 2 0,0
21.05.2018 09:00:00 14,9 11,9 11 6 23 12 ENE 1015,0 0 0,0
21.05.2018 08:00:00 14,8 11,8 11 6 27 15 ENE 1015,7 0 0,0
21.05.2018 07:00:00 14,1 11,7 10 6 22 12 ENE 1015,9 0 0,1
21.05.2018 06:00:00 13,8 11,5 7 4 16 9 E 1016,6 0 0,0
21.05.2018 05:00:00 14,5 11,3 12 7 19 10 NE 1016,6 0 0,0
21.05.2018 04:00:00 14,4 11,5 10 6 15 8 NE 1016,9 0 0,0
21.05.2018 03:00:00 14,3 11,3 6 4 14 8 E 1017,7 0 0,0
21.05.2018 02:00:00 14,7 11,4 7 4 15 8 E 1018,5 0 0,0
21.05.2018 01:00:00 14,4 12,5 9 5 16 8 ENE 1018,7 0 0,0
21.05.2018 00:00:00 14,9 12,5 5 3 16 8 ENE 1018,7 0 0,0
20.05.2018 23:00:00 14,3 12,6 9 5 12 6 NE 1019,0 0 0,0

tt = Température de l'air
td = dewpoint
ff = Vitesse du vent
fx = gusts
dd = Direction du vent
ppp = reduced air pressure
sd = Ensoleillement
rr = Quantités de précipitations

stations d'obs. à proximité